Decoded Metar for EGXC (CONINGSBY in ENGLAND) (IATA:QCY) | Meteo·Mobile Aviation Weather
aviador You're here:

EGXC Decoded Metar

CONINGSBY in ENGLAND
Report Time2019-03-21 14:50:00
UTC Time2019-03-21 15:45:32
Flight Rules mvfr MVFR
Wind310° at 05 kt
W.Decomp.*RWY 25: 2.4 kt HW 4.4 kt RCW
W.Rank310° ranks 17
Current wind is below 310° avg. (7.7)
Visibility9999 m
Phenomena:N/A
Clouds:Few 024 Hf
Broken 028 Hf
Expected CloudBase > 2,400 ft AGL from Temp-Dew spread
Ceiling2,800 ft
Temp14°C (ISA -1)
Dew Point08°C (67% RH)
AAT11.7°C
QNH1031 hPa
Density Alt-551 ft
Elevation23 ft
Report Wrong Elevation
Raw Report
EGXC 211450Z 31005KT 9999 FEW024 BKN028 14/08 Q1031 BLU NOSIG=

Extra information for EGXC:More info

Metar Taf Metar & Taf Last 4 Metars F.Rules Stats Wind Profile Meteogram Temp Stats Airport Information Weather charts Add Link Nearby VenuesMetar ALERT Operation Metar Decoded Social comments